ETH878 FSIA-HAAB
Flight info
| Callsign | ETH878 |
|---|---|
| Flight time | N/A |
| Altitude | 40000 |
| Route | UNBED1B UNBED T154 XABAL DCT MOGUD/N0480F410 UM313 EGLOM/N0481F400 UM313 MAV UQ555 IMKIT IMKIT1A |
| Aircraft | A359/H-SDE2E3GHIJ3J4J5LM1ORWXY/LB1D1 |
Departure
| Time | 2026-04-30 14:40 |
|---|---|
| Airport | Seychelles International Airport (FSIA) |
Arrival
| Time | N/A |
|---|---|
| Airport | Addis Ababa Bole International Airport (HAAB) |
| Time | Latitude | Longitude | Altitude | Speed | Heading |
|---|---|---|---|---|---|
| 2026-04-30 14:14 | -4.67078 | 55.51227 | 27 ft | 0 kts | 215° |
| 2026-04-30 14:32 | -4.67061 | 55.51240 | 26 ft | 4 kts | 222° |
| 2026-04-30 14:32 | -4.67044 | 55.51260 | 23 ft | 4 kts | 245° |
| 2026-04-30 14:33 | -4.67040 | 55.51283 | 25 ft | 4 kts | 299° |
| 2026-04-30 14:33 | -4.67026 | 55.51262 | 25 ft | 0 kts | 304° |
| 2026-04-30 14:37 | -4.67013 | 55.51243 | 26 ft | 6 kts | 305° |
| 2026-04-30 14:37 | -4.66980 | 55.51210 | 27 ft | 7 kts | 330° |
| 2026-04-30 14:37 | -4.66926 | 55.51205 | 27 ft | 9 kts | 350° |
| 2026-04-30 14:37 | -4.66877 | 55.51168 | 27 ft | 10 kts | 308° |
| 2026-04-30 14:38 | -4.66834 | 55.51105 | 27 ft | 12 kts | 303° |
| 2026-04-30 14:38 | -4.66777 | 55.51035 | 27 ft | 13 kts | 332° |
| 2026-04-30 14:38 | -4.66698 | 55.51054 | 29 ft | 12 kts | 42° |
| 2026-04-30 14:38 | -4.66707 | 55.51123 | 29 ft | 6 kts | 126° |
| 2026-04-30 14:39 | -4.66708 | 55.51124 | 29 ft | 0 kts | 125° |
| 2026-04-30 14:39 | -4.66723 | 55.51145 | 29 ft | 21 kts | 125° |
| 2026-04-30 14:39 | -4.66954 | 55.51479 | 28 ft | 93 kts | 124° |
| 2026-04-30 14:40 | -4.68067 | 55.53105 | 628 ft | 155 kts | 124° |
| 2026-04-30 14:40 | -4.68685 | 55.54006 | 1296 ft | 161 kts | 126° |
| 2026-04-30 14:40 | -4.69403 | 55.54988 | 1599 ft | 186 kts | 128° |
| 2026-04-30 14:40 | -4.70247 | 55.56077 | 1938 ft | 210 kts | 129° |
| 2026-04-30 14:41 | -4.71156 | 55.57311 | 2374 ft | 228 kts | 126° |
| 2026-04-30 14:41 | -4.72066 | 55.58691 | 2840 ft | 248 kts | 123° |
| 2026-04-30 14:41 | -4.72991 | 55.60184 | 3386 ft | 260 kts | 120° |
| 2026-04-30 14:41 | -4.73550 | 55.61924 | 4061 ft | 269 kts | 93° |
| 2026-04-30 14:42 | -4.73100 | 55.63725 | 4876 ft | 273 kts | 62° |
| 2026-04-30 14:42 | -4.71841 | 55.65180 | 5495 ft | 282 kts | 36° |
| 2026-04-30 14:42 | -4.70048 | 55.65940 | 6151 ft | 285 kts | 8° |
| 2026-04-30 14:42 | -4.68090 | 55.65689 | 6793 ft | 290 kts | 336° |
| 2026-04-30 14:43 | -4.66535 | 55.64433 | 7487 ft | 291 kts | 303° |
| 2026-04-30 14:43 | -4.65642 | 55.62613 | 8251 ft | 294 kts | 292° |
| 2026-04-30 14:43 | -4.64812 | 55.60730 | 9069 ft | 296 kts | 294° |
| 2026-04-30 14:43 | -4.63920 | 55.58864 | 9872 ft | 299 kts | 295° |
| 2026-04-30 14:44 | -4.62978 | 55.56973 | 10433 ft | 311 kts | 296° |
| 2026-04-30 14:44 | -4.61982 | 55.55013 | 10759 ft | 329 kts | 296° |
| 2026-04-30 14:44 | -4.60903 | 55.52919 | 11082 ft | 346 kts | 296° |
| 2026-04-30 14:44 | -4.59774 | 55.50741 | 11539 ft | 357 kts | 296° |
| 2026-04-30 14:45 | -4.58619 | 55.48517 | 12151 ft | 362 kts | 296° |
| 2026-04-30 14:45 | -4.57450 | 55.46269 | 12766 ft | 366 kts | 296° |
| 2026-04-30 14:45 | -4.56253 | 55.43997 | 13390 ft | 370 kts | 297° |
| 2026-04-30 14:45 | -4.55041 | 55.41710 | 13974 ft | 374 kts | 297° |
| 2026-04-30 14:46 | -4.53814 | 55.39396 | 14500 ft | 378 kts | 297° |
| 2026-04-30 14:46 | -4.52575 | 55.37059 | 15037 ft | 381 kts | 297° |
| 2026-04-30 14:46 | -4.51343 | 55.34732 | 15576 ft | 385 kts | 297° |
| 2026-04-30 14:46 | -4.50495 | 55.33130 | 15939 ft | 387 kts | 297° |
| 2026-04-30 14:47 | -4.48813 | 55.29955 | 16660 ft | 391 kts | 297° |
| 2026-04-30 14:47 | -4.47532 | 55.27535 | 17188 ft | 395 kts | 297° |
| 2026-04-30 14:47 | -4.46240 | 55.25096 | 17725 ft | 398 kts | 297° |
| 2026-04-30 14:47 | -4.44934 | 55.22629 | 18240 ft | 402 kts | 297° |
| 2026-04-30 14:48 | -4.43622 | 55.20152 | 18713 ft | 405 kts | 297° |
| 2026-04-30 14:48 | -4.42298 | 55.17652 | 19198 ft | 407 kts | 297° |
| 2026-04-30 14:48 | -4.40987 | 55.15177 | 19696 ft | 409 kts | 297° |
| 2026-04-30 14:48 | -4.39637 | 55.12654 | 20172 ft | 412 kts | 298° |
| 2026-04-30 14:49 | -4.38058 | 55.10263 | 20721 ft | 413 kts | 307° |
| 2026-04-30 14:49 | -4.36239 | 55.08008 | 21215 ft | 417 kts | 310° |
| 2026-04-30 14:49 | -4.34323 | 55.05824 | 21781 ft | 418 kts | 312° |
| 2026-04-30 14:49 | -4.32364 | 55.03672 | 22339 ft | 419 kts | 313° |
| 2026-04-30 14:50 | -4.28401 | 54.99356 | 23396 ft | 423 kts | 313° |
| 2026-04-30 14:50 | -4.26444 | 54.97204 | 23819 ft | 425 kts | 313° |
| 2026-04-30 14:51 | -4.22461 | 54.92769 | 24555 ft | 433 kts | 312° |
| 2026-04-30 14:51 | -4.20442 | 54.90511 | 24936 ft | 437 kts | 312° |
| 2026-04-30 14:51 | -4.16356 | 54.85943 | 25783 ft | 443 kts | 313° |
| 2026-04-30 14:52 | -4.14297 | 54.83639 | 26217 ft | 447 kts | 313° |
| 2026-04-30 14:52 | -4.10118 | 54.78967 | 27074 ft | 454 kts | 313° |
| 2026-04-30 14:52 | -4.08032 | 54.76636 | 27486 ft | 457 kts | 313° |
| 2026-04-30 14:53 | -4.03765 | 54.71869 | 28339 ft | 464 kts | 313° |
| 2026-04-30 14:53 | -4.01597 | 54.69444 | 28702 ft | 468 kts | 313° |
| 2026-04-30 14:54 | -3.97224 | 54.64550 | 29503 ft | 475 kts | 313° |
| 2026-04-30 14:54 | -3.92783 | 54.59593 | 30239 ft | 481 kts | 314° |
| 2026-04-30 14:55 | -3.88289 | 54.54578 | 30892 ft | 487 kts | 314° |
| 2026-04-30 14:55 | -3.86054 | 54.52082 | 31220 ft | 489 kts | 314° |
| 2026-04-30 14:55 | -3.81489 | 54.46984 | 31900 ft | 493 kts | 314° |
| 2026-04-30 14:56 | -3.76889 | 54.41848 | 32503 ft | 498 kts | 314° |
| 2026-04-30 14:56 | -3.72242 | 54.36660 | 33070 ft | 503 kts | 314° |
| 2026-04-30 14:57 | -3.69896 | 54.34041 | 33300 ft | 506 kts | 314° |
| 2026-04-30 14:57 | -3.65179 | 54.28777 | 33828 ft | 510 kts | 314° |
| 2026-04-30 14:58 | -3.60449 | 54.23499 | 34310 ft | 513 kts | 314° |
| 2026-04-30 14:58 | -3.58074 | 54.20847 | 34736 ft | 510 kts | 314° |
| 2026-04-30 14:58 | -3.53357 | 54.15582 | 35392 ft | 508 kts | 314° |
| 2026-04-30 14:59 | -3.48645 | 54.10326 | 35994 ft | 506 kts | 314° |
| 2026-04-30 15:00 | -3.41606 | 54.02476 | 36883 ft | 504 kts | 314° |
| 2026-04-30 15:00 | -3.36954 | 53.97288 | 37449 ft | 503 kts | 315° |
| 2026-04-30 15:01 | -3.32286 | 53.92085 | 38012 ft | 501 kts | 315° |
| 2026-04-30 15:01 | -3.30744 | 53.90366 | 38187 ft | 501 kts | 315° |
| 2026-04-30 15:01 | -3.25311 | 53.84309 | 38750 ft | 499 kts | 315° |
| 2026-04-30 15:02 | -3.22989 | 53.81722 | 38950 ft | 499 kts | 315° |
| 2026-04-30 15:02 | -3.20675 | 53.79143 | 39140 ft | 499 kts | 315° |
| 2026-04-30 15:03 | -3.13760 | 53.71439 | 39666 ft | 498 kts | 315° |
| 2026-04-30 15:03 | -3.09132 | 53.66284 | 39912 ft | 499 kts | 315° |
| 2026-04-30 15:04 | -2.99616 | 53.53114 | 39918 ft | 504 kts | 304° |
| 2026-04-30 15:06 | -2.90416 | 53.38179 | 39920 ft | 504 kts | 304° |
| 2026-04-30 15:07 | -2.83052 | 53.26294 | 39917 ft | 504 kts | 305° |
| 2026-04-30 15:08 | -2.75676 | 53.14398 | 39920 ft | 502 kts | 305° |
| 2026-04-30 15:09 | -2.66495 | 52.99593 | 39925 ft | 502 kts | 305° |
| 2026-04-30 15:10 | -2.59135 | 52.87731 | 39921 ft | 502 kts | 305° |
| 2026-04-30 15:11 | -2.48241 | 52.69878 | 39924 ft | 503 kts | 304° |
| 2026-04-30 15:13 | -2.39150 | 52.54922 | 39922 ft | 503 kts | 304° |
| 2026-04-30 15:14 | -2.26482 | 52.34108 | 39926 ft | 501 kts | 304° |
| 2026-04-30 15:17 | -2.10223 | 52.07405 | 39927 ft | 500 kts | 304° |
| 2026-04-30 15:19 | -1.95757 | 51.83657 | 39929 ft | 501 kts | 304° |